sensor_id;sensor_type;location;lat;lon;timestamp;P1;durP1;ratioP1;P2;durP2;ratioP2
9115;SDS011;4593;53.652;10.168;2022-07-24T00:00:37;5.53;;;2.90;;
9115;SDS011;4593;53.652;10.168;2022-07-24T00:03:03;4.13;;;3.03;;
9115;SDS011;4593;53.652;10.168;2022-07-24T00:05:30;3.57;;;2.97;;
9115;SDS011;4593;53.652;10.168;2022-07-24T00:07:56;5.97;;;2.87;;
9115;SDS011;4593;53.652;10.168;2022-07-24T00:10:22;5.53;;;2.67;;
9115;SDS011;4593;53.652;10.168;2022-07-24T00:12:48;3.10;;;2.80;;
9115;SDS011;4593;53.652;10.168;2022-07-24T00:15:14;3.27;;;2.97;;
9115;SDS011;4593;53.652;10.168;2022-07-24T00:17:40;4.03;;;3.10;;
9115;SDS011;4593;53.652;10.168;2022-07-24T00:20:06;4.83;;;3.00;;
9115;SDS011;4593;53.652;10.168;2022-07-24T00:22:33;3.27;;;2.87;;
9115;SDS011;4593;53.652;10.168;2022-07-24T00:24:59;2.53;;;2.33;;
9115;SDS011;4593;53.652;10.168;2022-07-24T00:27:25;6.47;;;2.87;;
9115;SDS011;4593;53.652;10.168;2022-07-24T00:29:51;4.83;;;2.90;;
9115;SDS011;4593;53.652;10.168;2022-07-24T00:32:17;4.27;;;3.20;;
9115;SDS011;4593;53.652;10.168;2022-07-24T00:34:43;2.80;;;2.60;;
9115;SDS011;4593;53.652;10.168;2022-07-24T00:37:09;3.57;;;2.80;;
9115;SDS011;4593;53.652;10.168;2022-07-24T00:39:35;3.40;;;3.10;;
9115;SDS011;4593;53.652;10.168;2022-07-24T00:42:01;4.10;;;3.07;;
9115;SDS011;4593;53.652;10.168;2022-07-24T00:44:27;3.93;;;3.10;;
9115;SDS011;4593;53.652;10.168;2022-07-24T00:46:53;5.73;;;2.97;;
9115;SDS011;4593;53.652;10.168;2022-07-24T00:49:19;2.77;;;2.57;;
9115;SDS011;4593;53.652;10.168;2022-07-24T00:51:46;3.10;;;2.77;;
9115;SDS011;4593;53.652;10.168;2022-07-24T00:54:13;4.50;;;3.27;;
9115;SDS011;4593;53.652;10.168;2022-07-24T00:56:43;6.00;;;2.80;;
9115;SDS011;4593;53.652;10.168;2022-07-24T00:59:09;4.40;;;2.90;;
9115;SDS011;4593;53.652;10.168;2022-07-24T01:01:36;3.70;;;2.77;;
9115;SDS011;4593;53.652;10.168;2022-07-24T01:04:02;4.60;;;3.30;;
9115;SDS011;4593;53.652;10.168;2022-07-24T01:06:28;2.87;;;2.57;;
9115;SDS011;4593;53.652;10.168;2022-07-24T01:08:54;4.50;;;2.67;;
9115;SDS011;4593;53.652;10.168;2022-07-24T01:11:21;3.40;;;3.10;;
9115;SDS011;4593;53.652;10.168;2022-07-24T01:13:47;3.53;;;3.20;;
9115;SDS011;4593;53.652;10.168;2022-07-24T01:16:14;3.67;;;2.70;;
9115;SDS011;4593;53.652;10.168;2022-07-24T01:18:40;3.80;;;2.80;;
9115;SDS011;4593;53.652;10.168;2022-07-24T01:21:06;4.03;;;2.60;;
9115;SDS011;4593;53.652;10.168;2022-07-24T01:23:32;5.47;;;2.80;;
9115;SDS011;4593;53.652;10.168;2022-07-24T01:25:58;3.63;;;2.83;;
9115;SDS011;4593;53.652;10.168;2022-07-24T01:28:24;2.90;;;2.70;;
9115;SDS011;4593;53.652;10.168;2022-07-24T01:30:50;3.30;;;2.97;;
9115;SDS011;4593;53.652;10.168;2022-07-24T01:33:16;3.33;;;3.03;;
9115;SDS011;4593;53.652;10.168;2022-07-24T01:35:42;4.57;;;2.87;;
9115;SDS011;4593;53.652;10.168;2022-07-24T01:38:09;2.93;;;2.63;;
9115;SDS011;4593;53.652;10.168;2022-07-24T01:40:35;3.03;;;2.60;;
9115;SDS011;4593;53.652;10.168;2022-07-24T01:43:02;3.20;;;2.67;;
9115;SDS011;4593;53.652;10.168;2022-07-24T01:45:28;4.97;;;3.00;;
9115;SDS011;4593;53.652;10.168;2022-07-24T01:47:55;3.43;;;3.03;;
9115;SDS011;4593;53.652;10.168;2022-07-24T01:50:21;4.97;;;2.90;;
9115;SDS011;4593;53.652;10.168;2022-07-24T01:52:47;3.30;;;3.00;;
9115;SDS011;4593;53.652;10.168;2022-07-24T01:55:12;3.10;;;2.80;;
9115;SDS011;4593;53.652;10.168;2022-07-24T01:57:39;3.30;;;2.80;;
9115;SDS011;4593;53.652;10.168;2022-07-24T02:00:05;3.57;;;3.13;;
9115;SDS011;4593;53.652;10.168;2022-07-24T02:02:37;3.43;;;3.13;;
9115;SDS011;4593;53.652;10.168;2022-07-24T02:05:03;3.60;;;3.23;;
9115;SDS011;4593;53.652;10.168;2022-07-24T02:07:29;7.00;;;3.20;;
9115;SDS011;4593;53.652;10.168;2022-07-24T02:09:55;3.67;;;3.20;;
9115;SDS011;4593;53.652;10.168;2022-07-24T02:12:21;5.63;;;3.57;;
9115;SDS011;4593;53.652;10.168;2022-07-24T02:14:47;3.70;;;3.23;;
9115;SDS011;4593;53.652;10.168;2022-07-24T02:17:13;4.23;;;2.90;;
9115;SDS011;4593;53.652;10.168;2022-07-24T02:19:39;3.57;;;2.87;;
9115;SDS011;4593;53.652;10.168;2022-07-24T02:22:05;4.93;;;3.80;;
9115;SDS011;4593;53.652;10.168;2022-07-24T02:24:31;3.37;;;3.07;;
9115;SDS011;4593;53.652;10.168;2022-07-24T02:26:57;4.57;;;3.20;;
9115;SDS011;4593;53.652;10.168;2022-07-24T02:29:23;4.67;;;3.37;;
9115;SDS011;4593;53.652;10.168;2022-07-24T02:31:49;4.27;;;3.17;;
9115;SDS011;4593;53.652;10.168;2022-07-24T02:34:15;4.50;;;3.57;;
9115;SDS011;4593;53.652;10.168;2022-07-24T02:36:41;3.37;;;3.07;;
9115;SDS011;4593;53.652;10.168;2022-07-24T02:39:07;3.43;;;3.03;;
9115;SDS011;4593;53.652;10.168;2022-07-24T02:41:34;3.47;;;3.17;;
9115;SDS011;4593;53.652;10.168;2022-07-24T02:43:59;4.43;;;3.53;;
9115;SDS011;4593;53.652;10.168;2022-07-24T02:46:25;4.23;;;3.40;;
9115;SDS011;4593;53.652;10.168;2022-07-24T02:48:51;4.10;;;3.30;;
9115;SDS011;4593;53.652;10.168;2022-07-24T02:51:18;4.77;;;3.53;;
9115;SDS011;4593;53.652;10.168;2022-07-24T02:53:44;3.27;;;2.97;;
9115;SDS011;4593;53.652;10.168;2022-07-24T02:56:10;4.10;;;3.40;;
9115;SDS011;4593;53.652;10.168;2022-07-24T02:58:36;5.00;;;3.30;;
9115;SDS011;4593;53.652;10.168;2022-07-24T03:01:02;8.23;;;3.40;;
9115;SDS011;4593;53.652;10.168;2022-07-24T03:03:28;4.30;;;3.47;;
9115;SDS011;4593;53.652;10.168;2022-07-24T03:05:54;7.27;;;3.53;;
9115;SDS011;4593;53.652;10.168;2022-07-24T03:08:20;4.90;;;3.57;;
9115;SDS011;4593;53.652;10.168;2022-07-24T03:10:46;3.43;;;3.13;;
9115;SDS011;4593;53.652;10.168;2022-07-24T03:13:12;5.57;;;3.10;;
9115;SDS011;4593;53.652;10.168;2022-07-24T03:15:38;3.63;;;3.27;;
9115;SDS011;4593;53.652;10.168;2022-07-24T03:18:04;4.20;;;3.67;;
9115;SDS011;4593;53.652;10.168;2022-07-24T03:20:30;4.00;;;3.50;;
9115;SDS011;4593;53.652;10.168;2022-07-24T03:22:58;4.17;;;3.67;;
9115;SDS011;4593;53.652;10.168;2022-07-24T03:25:25;8.43;;;3.63;;
9115;SDS011;4593;53.652;10.168;2022-07-24T03:27:51;4.93;;;3.47;;
9115;SDS011;4593;53.652;10.168;2022-07-24T03:30:18;4.47;;;3.40;;
9115;SDS011;4593;53.652;10.168;2022-07-24T03:32:44;5.13;;;3.83;;
9115;SDS011;4593;53.652;10.168;2022-07-24T03:35:11;4.47;;;3.23;;
9115;SDS011;4593;53.652;10.168;2022-07-24T03:37:37;4.73;;;3.33;;
9115;SDS011;4593;53.652;10.168;2022-07-24T03:40:03;5.00;;;3.67;;
9115;SDS011;4593;53.652;10.168;2022-07-24T03:42:29;6.33;;;3.70;;
9115;SDS011;4593;53.652;10.168;2022-07-24T03:44:55;4.50;;;3.43;;
9115;SDS011;4593;53.652;10.168;2022-07-24T03:47:21;5.07;;;3.63;;
9115;SDS011;4593;53.652;10.168;2022-07-24T03:49:47;3.47;;;3.17;;
9115;SDS011;4593;53.652;10.168;2022-07-24T03:52:13;5.20;;;3.70;;
9115;SDS011;4593;53.652;10.168;2022-07-24T03:54:40;4.73;;;3.63;;
9115;SDS011;4593;53.652;10.168;2022-07-24T03:57:05;5.23;;;3.77;;
9115;SDS011;4593;53.652;10.168;2022-07-24T03:59:31;4.70;;;3.93;;
9115;SDS011;4593;53.652;10.168;2022-07-24T04:01:58;5.43;;;3.90;;
9115;SDS011;4593;53.652;10.168;2022-07-24T04:04:23;4.07;;;3.50;;
9115;SDS011;4593;53.652;10.168;2022-07-24T04:06:49;3.83;;;3.27;;
9115;SDS011;4593;53.652;10.168;2022-07-24T04:09:15;4.47;;;3.50;;
9115;SDS011;4593;53.652;10.168;2022-07-24T04:11:41;3.63;;;2.93;;
9115;SDS011;4593;53.652;10.168;2022-07-24T04:14:09;4.97;;;3.60;;
9115;SDS011;4593;53.652;10.168;2022-07-24T04:16:35;3.53;;;3.23;;
9115;SDS011;4593;53.652;10.168;2022-07-24T04:19:01;5.53;;;4.07;;
9115;SDS011;4593;53.652;10.168;2022-07-24T04:21:27;4.87;;;3.60;;
9115;SDS011;4593;53.652;10.168;2022-07-24T04:23:53;3.73;;;3.00;;
9115;SDS011;4593;53.652;10.168;2022-07-24T04:26:19;3.90;;;3.37;;
9115;SDS011;4593;53.652;10.168;2022-07-24T04:28:45;6.40;;;3.70;;
9115;SDS011;4593;53.652;10.168;2022-07-24T04:31:11;3.50;;;3.20;;
9115;SDS011;4593;53.652;10.168;2022-07-24T04:33:37;3.50;;;3.00;;
9115;SDS011;4593;53.652;10.168;2022-07-24T04:36:03;4.43;;;3.50;;
9115;SDS011;4593;53.652;10.168;2022-07-24T04:38:31;4.07;;;3.37;;
9115;SDS011;4593;53.652;10.168;2022-07-24T04:40:58;3.63;;;3.10;;
9115;SDS011;4593;53.652;10.168;2022-07-24T04:43:24;5.33;;;3.53;;
9115;SDS011;4593;53.652;10.168;2022-07-24T04:45:49;7.13;;;3.80;;
9115;SDS011;4593;53.652;10.168;2022-07-24T04:48:15;5.63;;;3.53;;
9115;SDS011;4593;53.652;10.168;2022-07-24T04:50:41;4.23;;;3.43;;
9115;SDS011;4593;53.652;10.168;2022-07-24T04:53:07;3.43;;;3.13;;
9115;SDS011;4593;53.652;10.168;2022-07-24T04:55:33;5.27;;;3.50;;
9115;SDS011;4593;53.652;10.168;2022-07-24T04:57:59;3.50;;;3.00;;
9115;SDS011;4593;53.652;10.168;2022-07-24T05:00:25;4.97;;;2.90;;
9115;SDS011;4593;53.652;10.168;2022-07-24T05:02:51;4.40;;;3.73;;
9115;SDS011;4593;53.652;10.168;2022-07-24T05:05:17;5.17;;;3.63;;
9115;SDS011;4593;53.652;10.168;2022-07-24T05:07:43;4.00;;;3.13;;
9115;SDS011;4593;53.652;10.168;2022-07-24T05:10:09;4.13;;;3.03;;
9115;SDS011;4593;53.652;10.168;2022-07-24T05:12:35;3.63;;;3.27;;
9115;SDS011;4593;53.652;10.168;2022-07-24T05:15:01;3.53;;;3.20;;
9115;SDS011;4593;53.652;10.168;2022-07-24T05:17:27;6.07;;;3.47;;
9115;SDS011;4593;53.652;10.168;2022-07-24T05:19:53;3.33;;;3.03;;
9115;SDS011;4593;53.652;10.168;2022-07-24T05:22:20;5.10;;;3.40;;
9115;SDS011;4593;53.652;10.168;2022-07-24T05:24:46;2.80;;;2.60;;
9115;SDS011;4593;53.652;10.168;2022-07-24T05:27:11;6.47;;;3.20;;
9115;SDS011;4593;53.652;10.168;2022-07-24T05:29:37;4.37;;;2.73;;
9115;SDS011;4593;53.652;10.168;2022-07-24T05:32:03;4.07;;;3.10;;
9115;SDS011;4593;53.652;10.168;2022-07-24T05:34:30;3.30;;;2.73;;
9115;SDS011;4593;53.652;10.168;2022-07-24T05:36:56;2.70;;;2.50;;
9115;SDS011;4593;53.652;10.168;2022-07-24T05:39:22;4.10;;;2.83;;
9115;SDS011;4593;53.652;10.168;2022-07-24T05:41:48;4.80;;;2.90;;
9115;SDS011;4593;53.652;10.168;2022-07-24T05:44:14;3.97;;;3.07;;
9115;SDS011;4593;53.652;10.168;2022-07-24T05:46:40;6.87;;;2.73;;
9115;SDS011;4593;53.652;10.168;2022-07-24T05:49:06;3.20;;;2.90;;
9115;SDS011;4593;53.652;10.168;2022-07-24T05:51:32;6.73;;;2.90;;
9115;SDS011;4593;53.652;10.168;2022-07-24T05:53:58;5.47;;;2.70;;
9115;SDS011;4593;53.652;10.168;2022-07-24T05:56:24;3.20;;;2.90;;
9115;SDS011;4593;53.652;10.168;2022-07-24T05:58:50;3.20;;;2.50;;
9115;SDS011;4593;53.652;10.168;2022-07-24T06:01:16;2.83;;;2.60;;
9115;SDS011;4593;53.652;10.168;2022-07-24T06:03:42;3.20;;;2.90;;
9115;SDS011;4593;53.652;10.168;2022-07-24T06:06:08;2.87;;;2.57;;
9115;SDS011;4593;53.652;10.168;2022-07-24T06:08:34;5.07;;;2.43;;
9115;SDS011;4593;53.652;10.168;2022-07-24T06:11:00;3.10;;;2.70;;
9115;SDS011;4593;53.652;10.168;2022-07-24T06:13:26;2.93;;;2.60;;
9115;SDS011;4593;53.652;10.168;2022-07-24T06:15:52;3.53;;;2.50;;
9115;SDS011;4593;53.652;10.168;2022-07-24T06:18:19;5.00;;;2.20;;
9115;SDS011;4593;53.652;10.168;2022-07-24T06:20:45;2.17;;;1.97;;
9115;SDS011;4593;53.652;10.168;2022-07-24T06:23:11;3.63;;;2.10;;
9115;SDS011;4593;53.652;10.168;2022-07-24T06:25:37;4.13;;;2.23;;
9115;SDS011;4593;53.652;10.168;2022-07-24T06:28:03;2.43;;;2.20;;
9115;SDS011;4593;53.652;10.168;2022-07-24T06:30:29;5.97;;;2.50;;
9115;SDS011;4593;53.652;10.168;2022-07-24T06:32:56;2.20;;;2.07;;
9115;SDS011;4593;53.652;10.168;2022-07-24T06:35:23;2.83;;;2.23;;
9115;SDS011;4593;53.652;10.168;2022-07-24T06:37:49;2.40;;;2.20;;
9115;SDS011;4593;53.652;10.168;2022-07-24T06:40:16;4.27;;;2.40;;
9115;SDS011;4593;53.652;10.168;2022-07-24T06:42:42;2.50;;;2.10;;
9115;SDS011;4593;53.652;10.168;2022-07-24T06:45:08;2.50;;;2.30;;
9115;SDS011;4593;53.652;10.168;2022-07-24T06:47:35;2.80;;;1.90;;
9115;SDS011;4593;53.652;10.168;2022-07-24T06:50:01;2.37;;;2.17;;
9115;SDS011;4593;53.652;10.168;2022-07-24T06:52:27;3.23;;;1.77;;
9115;SDS011;4593;53.652;10.168;2022-07-24T06:54:52;2.60;;;2.40;;
9115;SDS011;4593;53.652;10.168;2022-07-24T06:57:19;5.17;;;2.13;;
9115;SDS011;4593;53.652;10.168;2022-07-24T06:59:45;2.40;;;2.20;;
9115;SDS011;4593;53.652;10.168;2022-07-24T07:02:11;1.97;;;1.87;;
9115;SDS011;4593;53.652;10.168;2022-07-24T07:04:37;1.97;;;1.87;;
9115;SDS011;4593;53.652;10.168;2022-07-24T07:07:04;2.40;;;1.80;;
9115;SDS011;4593;53.652;10.168;2022-07-24T07:09:30;2.70;;;1.80;;
9115;SDS011;4593;53.652;10.168;2022-07-24T07:11:56;2.20;;;2.00;;
9115;SDS011;4593;53.652;10.168;2022-07-24T07:14:22;5.60;;;2.10;;
9115;SDS011;4593;53.652;10.168;2022-07-24T07:16:48;4.70;;;1.90;;
9115;SDS011;4593;53.652;10.168;2022-07-24T07:19:14;2.43;;;2.13;;
9115;SDS011;4593;53.652;10.168;2022-07-24T07:21:40;3.03;;;2.20;;
9115;SDS011;4593;53.652;10.168;2022-07-24T07:24:06;2.70;;;1.90;;
9115;SDS011;4593;53.652;10.168;2022-07-24T07:26:32;1.80;;;1.70;;
9115;SDS011;4593;53.652;10.168;2022-07-24T07:28:58;2.43;;;2.00;;
9115;SDS011;4593;53.652;10.168;2022-07-24T07:31:24;2.10;;;1.90;;
9115;SDS011;4593;53.652;10.168;2022-07-24T07:33:51;1.77;;;1.67;;
9115;SDS011;4593;53.652;10.168;2022-07-24T07:36:17;1.80;;;1.70;;
9115;SDS011;4593;53.652;10.168;2022-07-24T07:38:44;2.13;;;1.90;;
9115;SDS011;4593;53.652;10.168;2022-07-24T07:41:10;4.67;;;1.67;;
9115;SDS011;4593;53.652;10.168;2022-07-24T07:43:37;2.63;;;2.00;;
9115;SDS011;4593;53.652;10.168;2022-07-24T07:46:03;2.17;;;1.97;;
9115;SDS011;4593;53.652;10.168;2022-07-24T07:48:30;3.93;;;1.87;;
9115;SDS011;4593;53.652;10.168;2022-07-24T07:50:56;4.10;;;1.70;;
9115;SDS011;4593;53.652;10.168;2022-07-24T07:53:22;1.70;;;1.60;;
9115;SDS011;4593;53.652;10.168;2022-07-24T07:55:49;2.00;;;1.80;;
9115;SDS011;4593;53.652;10.168;2022-07-24T07:58:19;2.50;;;1.90;;
9115;SDS011;4593;53.652;10.168;2022-07-24T08:00:47;1.93;;;1.83;;
9115;SDS011;4593;53.652;10.168;2022-07-24T08:03:13;1.83;;;1.73;;
9115;SDS011;4593;53.652;10.168;2022-07-24T08:05:39;2.70;;;1.80;;
9115;SDS011;4593;53.652;10.168;2022-07-24T08:08:05;5.30;;;2.10;;
9115;SDS011;4593;53.652;10.168;2022-07-24T08:10:31;1.93;;;1.80;;
9115;SDS011;4593;53.652;10.168;2022-07-24T08:12:57;4.27;;;1.90;;
9115;SDS011;4593;53.652;10.168;2022-07-24T08:15:23;5.00;;;1.93;;
9115;SDS011;4593;53.652;10.168;2022-07-24T08:17:56;2.23;;;1.80;;
9115;SDS011;4593;53.652;10.168;2022-07-24T08:20:23;3.03;;;1.77;;
9115;SDS011;4593;53.652;10.168;2022-07-24T08:22:49;2.00;;;1.90;;
9115;SDS011;4593;53.652;10.168;2022-07-24T08:25:15;2.17;;;1.90;;
9115;SDS011;4593;53.652;10.168;2022-07-24T08:27:42;2.47;;;2.20;;
9115;SDS011;4593;53.652;10.168;2022-07-24T08:30:08;3.33;;;2.00;;
9115;SDS011;4593;53.652;10.168;2022-07-24T08:32:34;1.80;;;1.70;;
9115;SDS011;4593;53.652;10.168;2022-07-24T08:35:01;1.87;;;1.73;;
9115;SDS011;4593;53.652;10.168;2022-07-24T08:37:27;1.87;;;1.70;;
9115;SDS011;4593;53.652;10.168;2022-07-24T08:39:53;2.50;;;2.00;;
9115;SDS011;4593;53.652;10.168;2022-07-24T08:42:22;2.30;;;2.10;;
9115;SDS011;4593;53.652;10.168;2022-07-24T08:44:48;1.93;;;1.83;;
9115;SDS011;4593;53.652;10.168;2022-07-24T08:47:14;3.07;;;1.80;;
9115;SDS011;4593;53.652;10.168;2022-07-24T08:49:40;2.27;;;1.77;;
9115;SDS011;4593;53.652;10.168;2022-07-24T08:52:09;2.20;;;2.00;;
9115;SDS011;4593;53.652;10.168;2022-07-24T08:54:35;5.60;;;2.00;;
9115;SDS011;4593;53.652;10.168;2022-07-24T08:57:04;1.80;;;1.70;;
9115;SDS011;4593;53.652;10.168;2022-07-24T08:59:30;3.40;;;2.13;;
9115;SDS011;4593;53.652;10.168;2022-07-24T09:01:57;1.80;;;1.67;;
9115;SDS011;4593;53.652;10.168;2022-07-24T09:04:36;2.73;;;2.00;;
9115;SDS011;4593;53.652;10.168;2022-07-24T09:07:04;2.10;;;1.90;;
9115;SDS011;4593;53.652;10.168;2022-07-24T09:09:31;2.60;;;2.00;;
9115;SDS011;4593;53.652;10.168;2022-07-24T09:14:33;2.27;;;2.07;;
9115;SDS011;4593;53.652;10.168;2022-07-24T09:17:06;2.40;;;2.10;;
9115;SDS011;4593;53.652;10.168;2022-07-24T09:22:31;2.33;;;1.90;;
9115;SDS011;4593;53.652;10.168;2022-07-24T09:27:29;1.80;;;1.70;;
9115;SDS011;4593;53.652;10.168;2022-07-24T09:29:55;1.90;;;1.80;;
9115;SDS011;4593;53.652;10.168;2022-07-24T09:32:22;3.97;;;2.23;;
9115;SDS011;4593;53.652;10.168;2022-07-24T09:34:50;3.00;;;2.10;;
9115;SDS011;4593;53.652;10.168;2022-07-24T09:37:16;2.37;;;2.17;;
9115;SDS011;4593;53.652;10.168;2022-07-24T09:39:43;2.07;;;1.90;;
9115;SDS011;4593;53.652;10.168;2022-07-24T09:42:09;2.97;;;2.20;;
9115;SDS011;4593;53.652;10.168;2022-07-24T09:44:35;2.10;;;1.90;;
9115;SDS011;4593;53.652;10.168;2022-07-24T09:47:05;3.00;;;1.80;;
9115;SDS011;4593;53.652;10.168;2022-07-24T09:49:32;3.20;;;2.00;;
9115;SDS011;4593;53.652;10.168;2022-07-24T09:54:33;3.00;;;2.10;;
9115;SDS011;4593;53.652;10.168;2022-07-24T09:59:49;3.10;;;1.97;;
9115;SDS011;4593;53.652;10.168;2022-07-24T10:02:16;2.50;;;1.80;;
9115;SDS011;4593;53.652;10.168;2022-07-24T10:04:43;2.30;;;2.10;;
9115;SDS011;4593;53.652;10.168;2022-07-24T10:07:10;4.10;;;2.13;;
9115;SDS011;4593;53.652;10.168;2022-07-24T10:09:36;2.20;;;2.00;;
9115;SDS011;4593;53.652;10.168;2022-07-24T10:12:11;3.90;;;2.30;;
9115;SDS011;4593;53.652;10.168;2022-07-24T10:14:38;2.70;;;2.30;;
9115;SDS011;4593;53.652;10.168;2022-07-24T10:17:06;2.70;;;2.07;;
9115;SDS011;4593;53.652;10.168;2022-07-24T10:19:39;2.40;;;2.20;;
9115;SDS011;4593;53.652;10.168;2022-07-24T10:22:09;3.70;;;2.70;;
9115;SDS011;4593;53.652;10.168;2022-07-24T10:29:54;4.97;;;2.07;;
9115;SDS011;4593;53.652;10.168;2022-07-24T10:32:21;3.30;;;2.13;;
9115;SDS011;4593;53.652;10.168;2022-07-24T10:34:50;3.67;;;2.70;;
9115;SDS011;4593;53.652;10.168;2022-07-24T10:37:28;4.40;;;2.57;;
9115;SDS011;4593;53.652;10.168;2022-07-24T10:42:23;2.57;;;2.37;;
9115;SDS011;4593;53.652;10.168;2022-07-24T10:47:33;2.90;;;2.60;;
9115;SDS011;4593;53.652;10.168;2022-07-24T10:49:59;3.13;;;2.30;;
9115;SDS011;4593;53.652;10.168;2022-07-24T10:52:27;3.60;;;2.30;;
9115;SDS011;4593;53.652;10.168;2022-07-24T10:55:55;2.63;;;2.43;;
9115;SDS011;4593;53.652;10.168;2022-07-24T11:02:55;4.07;;;2.90;;
9115;SDS011;4593;53.652;10.168;2022-07-24T11:05:22;2.97;;;2.77;;
9115;SDS011;4593;53.652;10.168;2022-07-24T11:10:47;3.13;;;2.63;;
9115;SDS011;4593;53.652;10.168;2022-07-24T11:21:31;5.33;;;3.17;;
9115;SDS011;4593;53.652;10.168;2022-07-24T11:31:39;4.77;;;3.23;;
9115;SDS011;4593;53.652;10.168;2022-07-24T11:34:05;5.63;;;3.20;;
9115;SDS011;4593;53.652;10.168;2022-07-24T11:36:34;3.40;;;3.10;;
9115;SDS011;4593;53.652;10.168;2022-07-24T11:39:00;3.43;;;3.13;;
9115;SDS011;4593;53.652;10.168;2022-07-24T11:41:27;3.50;;;3.20;;
9115;SDS011;4593;53.652;10.168;2022-07-24T11:43:53;4.13;;;3.10;;
9115;SDS011;4593;53.652;10.168;2022-07-24T11:46:35;4.83;;;3.30;;
9115;SDS011;4593;53.652;10.168;2022-07-24T11:49:03;4.30;;;3.70;;
9115;SDS011;4593;53.652;10.168;2022-07-24T11:51:29;3.80;;;3.40;;
9115;SDS011;4593;53.652;10.168;2022-07-24T11:53:55;3.77;;;3.37;;
9115;SDS011;4593;53.652;10.168;2022-07-24T11:56:21;5.23;;;3.17;;
9115;SDS011;4593;53.652;10.168;2022-07-24T11:58:47;3.43;;;2.93;;
9115;SDS011;4593;53.652;10.168;2022-07-24T12:01:20;3.33;;;2.80;;
9115;SDS011;4593;53.652;10.168;2022-07-24T12:03:53;3.50;;;2.90;;
9115;SDS011;4593;53.652;10.168;2022-07-24T12:06:22;3.90;;;3.27;;
9115;SDS011;4593;53.652;10.168;2022-07-24T12:08:48;4.43;;;3.53;;
9115;SDS011;4593;53.652;10.168;2022-07-24T12:11:21;4.30;;;3.77;;
9115;SDS011;4593;53.652;10.168;2022-07-24T12:13:47;3.73;;;3.33;;
9115;SDS011;4593;53.652;10.168;2022-07-24T12:16:23;6.57;;;3.57;;
9115;SDS011;4593;53.652;10.168;2022-07-24T12:18:49;4.57;;;3.63;;
9115;SDS011;4593;53.652;10.168;2022-07-24T12:21:15;4.50;;;3.50;;
9115;SDS011;4593;53.652;10.168;2022-07-24T12:23:44;4.73;;;4.10;;
9115;SDS011;4593;53.652;10.168;2022-07-24T12:26:11;4.90;;;3.77;;
9115;SDS011;4593;53.652;10.168;2022-07-24T12:28:37;4.13;;;3.57;;
9115;SDS011;4593;53.652;10.168;2022-07-24T12:31:06;5.78;;;3.60;;
9115;SDS011;4593;53.652;10.168;2022-07-24T12:33:34;7.60;;;3.58;;
9115;SDS011;4593;53.652;10.168;2022-07-24T12:36:04;4.30;;;3.50;;
9115;SDS011;4593;53.652;10.168;2022-07-24T12:38:50;3.65;;;3.25;;
9115;SDS011;4593;53.652;10.168;2022-07-24T12:41:18;6.53;;;3.53;;
9115;SDS011;4593;53.652;10.168;2022-07-24T12:46:22;8.50;;;3.65;;
9115;SDS011;4593;53.652;10.168;2022-07-24T12:54:20;3.65;;;3.35;;
9115;SDS011;4593;53.652;10.168;2022-07-24T12:56:50;4.75;;;3.63;;
9115;SDS011;4593;53.652;10.168;2022-07-24T12:59:33;4.65;;;3.60;;
9115;SDS011;4593;53.652;10.168;2022-07-24T13:02:02;4.68;;;3.50;;
9115;SDS011;4593;53.652;10.168;2022-07-24T13:04:28;3.53;;;3.22;;
9115;SDS011;4593;53.652;10.168;2022-07-24T13:06:58;4.82;;;3.60;;
9115;SDS011;4593;53.652;10.168;2022-07-24T13:09:24;5.40;;;3.35;;
9115;SDS011;4593;53.652;10.168;2022-07-24T13:11:52;4.10;;;3.53;;
9115;SDS011;4593;53.652;10.168;2022-07-24T13:14:19;5.95;;;3.65;;
9115;SDS011;4593;53.652;10.168;2022-07-24T13:16:46;4.47;;;3.50;;
9115;SDS011;4593;53.652;10.168;2022-07-24T13:19:13;6.45;;;3.08;;
9115;SDS011;4593;53.652;10.168;2022-07-24T13:21:39;3.85;;;3.45;;
9115;SDS011;4593;53.652;10.168;2022-07-24T13:24:05;4.60;;;3.75;;
9115;SDS011;4593;53.652;10.168;2022-07-24T13:26:32;3.53;;;3.13;;
9115;SDS011;4593;53.652;10.168;2022-07-24T13:28:58;3.40;;;3.10;;
9115;SDS011;4593;53.652;10.168;2022-07-24T13:31:24;4.05;;;2.92;;
9115;SDS011;4593;53.652;10.168;2022-07-24T13:33:51;4.15;;;3.15;;
9115;SDS011;4593;53.652;10.168;2022-07-24T13:36:17;3.78;;;3.38;;
9115;SDS011;4593;53.652;10.168;2022-07-24T13:38:43;3.60;;;3.10;;
9115;SDS011;4593;53.652;10.168;2022-07-24T13:41:09;3.33;;;2.97;;
9115;SDS011;4593;53.652;10.168;2022-07-24T13:43:36;4.40;;;3.65;;
9115;SDS011;4593;53.652;10.168;2022-07-24T13:46:02;3.78;;;3.22;;
9115;SDS011;4593;53.652;10.168;2022-07-24T13:48:28;6.22;;;3.30;;
9115;SDS011;4593;53.652;10.168;2022-07-24T13:50:54;5.72;;;3.53;;
9115;SDS011;4593;53.652;10.168;2022-07-24T13:53:19;5.15;;;3.20;;
9115;SDS011;4593;53.652;10.168;2022-07-24T13:55:45;3.40;;;3.10;;
9115;SDS011;4593;53.652;10.168;2022-07-24T13:58:11;4.03;;;3.13;;
9115;SDS011;4593;53.652;10.168;2022-07-24T14:00:38;4.15;;;2.97;;
9115;SDS011;4593;53.652;10.168;2022-07-24T14:03:04;3.90;;;3.03;;
9115;SDS011;4593;53.652;10.168;2022-07-24T14:05:30;3.88;;;3.33;;
9115;SDS011;4593;53.652;10.168;2022-07-24T14:07:56;3.78;;;3.08;;
9115;SDS011;4593;53.652;10.168;2022-07-24T14:10:22;3.35;;;3.05;;
9115;SDS011;4593;53.652;10.168;2022-07-24T14:12:48;4.78;;;3.65;;
9115;SDS011;4593;53.652;10.168;2022-07-24T14:15:14;5.00;;;3.33;;
9115;SDS011;4593;53.652;10.168;2022-07-24T14:17:41;6.57;;;3.42;;
9115;SDS011;4593;53.652;10.168;2022-07-24T14:20:08;5.82;;;3.10;;
9115;SDS011;4593;53.652;10.168;2022-07-24T14:22:35;3.40;;;3.10;;
9115;SDS011;4593;53.652;10.168;2022-07-24T14:25:01;7.50;;;3.63;;
9115;SDS011;4593;53.652;10.168;2022-07-24T14:27:28;3.72;;;3.33;;
9115;SDS011;4593;53.652;10.168;2022-07-24T14:29:54;5.20;;;3.60;;
9115;SDS011;4593;53.652;10.168;2022-07-24T14:32:20;5.93;;;3.53;;
9115;SDS011;4593;53.652;10.168;2022-07-24T14:34:46;6.30;;;3.25;;
9115;SDS011;4593;53.652;10.168;2022-07-24T14:37:12;4.13;;;3.55;;
9115;SDS011;4593;53.652;10.168;2022-07-24T14:39:38;3.75;;;3.42;;
9115;SDS011;4593;53.652;10.168;2022-07-24T14:42:04;4.25;;;3.72;;
9115;SDS011;4593;53.652;10.168;2022-07-24T14:44:31;3.92;;;3.33;;
9115;SDS011;4593;53.652;10.168;2022-07-24T14:46:57;4.10;;;3.58;;
9115;SDS011;4593;53.652;10.168;2022-07-24T14:49:25;3.47;;;3.17;;
9115;SDS011;4593;53.652;10.168;2022-07-24T14:51:51;4.32;;;3.55;;
9115;SDS011;4593;53.652;10.168;2022-07-24T14:54:17;4.18;;;3.40;;
9115;SDS011;4593;53.652;10.168;2022-07-24T14:56:43;3.38;;;3.08;;
9115;SDS011;4593;53.652;10.168;2022-07-24T14:59:09;3.40;;;3.10;;
9115;SDS011;4593;53.652;10.168;2022-07-24T15:01:36;4.05;;;3.20;;
9115;SDS011;4593;53.652;10.168;2022-07-24T15:04:01;4.30;;;3.90;;
9115;SDS011;4593;53.652;10.168;2022-07-24T15:06:28;3.20;;;2.95;;
9115;SDS011;4593;53.652;10.168;2022-07-24T15:08:54;4.25;;;3.08;;
9115;SDS011;4593;53.652;10.168;2022-07-24T15:11:20;6.40;;;3.40;;
9115;SDS011;4593;53.652;10.168;2022-07-24T15:13:49;4.32;;;3.72;;
9115;SDS011;4593;53.652;10.168;2022-07-24T15:16:15;4.90;;;3.78;;
9115;SDS011;4593;53.652;10.168;2022-07-24T15:18:41;4.00;;;3.28;;
9115;SDS011;4593;53.652;10.168;2022-07-24T15:21:07;3.88;;;3.42;;
9115;SDS011;4593;53.652;10.168;2022-07-24T15:23:33;5.40;;;3.55;;
9115;SDS011;4593;53.652;10.168;2022-07-24T15:25:59;3.53;;;3.22;;
9115;SDS011;4593;53.652;10.168;2022-07-24T15:28:25;3.50;;;3.17;;
9115;SDS011;4593;53.652;10.168;2022-07-24T15:30:52;4.07;;;3.40;;
9115;SDS011;4593;53.652;10.168;2022-07-24T15:33:18;5.05;;;3.47;;
9115;SDS011;4593;53.652;10.168;2022-07-24T15:35:44;4.50;;;3.83;;
9115;SDS011;4593;53.652;10.168;2022-07-24T15:38:10;4.07;;;3.45;;
9115;SDS011;4593;53.652;10.168;2022-07-24T15:40:38;3.22;;;2.92;;
9115;SDS011;4593;53.652;10.168;2022-07-24T15:43:04;4.53;;;3.58;;
9115;SDS011;4593;53.652;10.168;2022-07-24T15:45:30;4.50;;;3.17;;
9115;SDS011;4593;53.652;10.168;2022-07-24T15:47:56;4.20;;;3.38;;
9115;SDS011;4593;53.652;10.168;2022-07-24T15:50:22;4.75;;;3.50;;
9115;SDS011;4593;53.652;10.168;2022-07-24T15:52:48;3.63;;;3.30;;